createdAt,value
2022-11-29T00:03:14.327Z,66.7
2022-11-29T00:08:16.289Z,66.9
2022-11-29T00:13:18.641Z,66.9
2022-11-29T00:18:21.127Z,67
2022-11-29T00:23:23.253Z,67.1
2022-11-29T00:28:25.385Z,67
2022-11-29T00:33:27.809Z,67.1
2022-11-29T00:38:30.073Z,67.1
2022-11-29T00:43:32.229Z,67.3
2022-11-29T00:48:34.609Z,67.3
2022-11-29T00:53:36.731Z,67.4
2022-11-29T00:58:38.881Z,67.5
2022-11-29T01:03:41.048Z,67.6
2022-11-29T01:08:43.165Z,67.5
2022-11-29T01:13:45.306Z,68
2022-11-29T01:18:47.470Z,68.1
2022-11-29T01:23:49.767Z,67.7
2022-11-29T01:28:51.946Z,68.1
2022-11-29T01:33:54.114Z,68.1
2022-11-29T01:38:56.222Z,68.3
2022-11-29T01:43:58.379Z,68.1
2022-11-29T01:49:00.535Z,68.3
2022-11-29T01:54:02.646Z,68.3
2022-11-29T01:59:06.816Z,68.4
2022-11-29T02:04:08.971Z,68.3
2022-11-29T02:09:11.084Z,68.3
2022-11-29T02:14:13.221Z,68.4
2022-11-29T02:19:15.384Z,68.5
2022-11-29T02:24:17.506Z,68.6
2022-11-29T02:29:19.810Z,68.6
2022-11-29T02:34:22.253Z,68.7
2022-11-29T02:39:24.567Z,68.5
2022-11-29T02:44:26.727Z,68.6
2022-11-29T02:49:28.907Z,68.7
2022-11-29T02:54:31.019Z,68.7
2022-11-29T02:59:33.349Z,68.6
2022-11-29T03:04:35.609Z,68.7
2022-11-29T03:09:37.724Z,68.7
2022-11-29T03:14:39.861Z,68.8
2022-11-29T03:19:42.010Z,69
2022-11-29T03:24:44.550Z,69
2022-11-29T03:29:46.623Z,69.2
2022-11-29T03:34:51.793Z,69
2022-11-29T03:39:51.110Z,69
2022-11-29T03:44:53.240Z,69
2022-11-29T03:49:55.594Z,69.3
2022-11-29T03:54:57.698Z,69.2
2022-11-29T03:59:59.841Z,69.2
2022-11-29T04:05:01.994Z,69.2
2022-11-29T04:10:04.247Z,69.3
2022-11-29T04:15:06.639Z,69.2
2022-11-29T04:20:08.869Z,69.3
2022-11-29T04:25:10.979Z,69.4
2022-11-29T04:30:13.135Z,69.4
2022-11-29T04:35:15.300Z,69.4
2022-11-29T04:40:17.406Z,69.4
2022-11-29T04:45:19.742Z,69.5
2022-11-29T04:50:22.135Z,69.4
2022-11-29T04:55:30.582Z,69.7
2022-11-29T05:00:26.481Z,69.6
2022-11-29T05:05:28.641Z,69.5
2022-11-29T05:10:30.763Z,69.6
2022-11-29T05:15:33.104Z,69.4
2022-11-29T05:20:35.284Z,69.2
2022-11-29T05:25:37.564Z,68.8
2022-11-29T05:30:39.881Z,70.4
2022-11-29T05:35:42.135Z,70.3
2022-11-29T05:40:44.590Z,70.1
2022-11-29T05:45:46.750Z,69.5
2022-11-29T05:50:48.914Z,68.7
2022-11-29T05:55:51.036Z,68.1
2022-11-29T06:00:53.153Z,67.5
2022-11-29T06:05:55.318Z,67.2
2022-11-29T06:10:57.439Z,66.7
2022-11-29T06:15:59.637Z,66.5
2022-11-29T06:21:01.783Z,66.5
2022-11-29T06:26:04.441Z,66.7
2022-11-29T06:31:06.384Z,66.7
2022-11-29T06:36:08.782Z,67.4
2022-11-29T06:41:10.916Z,66
2022-11-29T06:46:13.124Z,66
2022-11-29T06:51:15.238Z,65.8
2022-11-29T06:56:17.422Z,65.6
2022-11-29T07:01:19.874Z,65.3
2022-11-29T07:06:22.001Z,65.3
2022-11-29T07:11:24.341Z,65.2
2022-11-29T07:16:26.540Z,64.9
2022-11-29T07:21:28.761Z,64.5
2022-11-29T07:26:30.869Z,64.2
2022-11-29T07:31:33.030Z,64.3
2022-11-29T07:36:35.287Z,64.5
2022-11-29T07:41:38.463Z,64.7
2022-11-29T07:46:40.618Z,65.1
2022-11-29T07:51:45.979Z,65.2
2022-11-29T07:56:48.102Z,65.5
2022-11-29T08:01:50.330Z,65.8
2022-11-29T08:06:52.446Z,65.6
2022-11-29T08:11:54.595Z,65.6
2022-11-29T08:16:57.064Z,65.7
2022-11-29T08:21:59.534Z,65.7
2022-11-29T08:27:01.685Z,65.6
2022-11-29T08:32:03.877Z,65.6
2022-11-29T08:37:06.208Z,65.7
2022-11-29T08:42:08.337Z,65.6
2022-11-29T08:47:10.478Z,65.6
2022-11-29T08:52:12.642Z,65.6
2022-11-29T08:57:38.925Z,65.7
2022-11-29T09:02:17.294Z,65.6
2022-11-29T09:07:19.723Z,65.6
2022-11-29T09:12:21.850Z,65.6
2022-11-29T09:17:24.141Z,66
2022-11-29T09:22:26.296Z,65.6
2022-11-29T09:27:28.408Z,66.2
2022-11-29T09:32:30.548Z,66.3
2022-11-29T09:37:32.717Z,66.1
2022-11-29T09:42:35.060Z,66.2
2022-11-29T09:47:37.223Z,66.4
2022-11-29T09:52:39.586Z,66.3
2022-11-29T09:57:41.819Z,66.2
2022-11-29T10:02:44.052Z,66.4
2022-11-29T10:07:46.273Z,66.4
2022-11-29T10:12:48.303Z,66.5
2022-11-29T10:17:50.453Z,66.4
2022-11-29T10:22:52.610Z,66.3
2022-11-29T10:27:55.001Z,66.3
2022-11-29T10:32:57.356Z,66.3
2022-11-29T10:38:28.944Z,66.2
2022-11-29T10:43:01.875Z,66.3
2022-11-29T10:48:04.009Z,66.5
2022-11-29T10:53:06.165Z,66.4
2022-11-29T10:58:08.343Z,66.3
2022-11-29T11:03:10.505Z,66.2
2022-11-29T11:08:12.764Z,66.3
2022-11-29T11:13:15.096Z,66.3
2022-11-29T11:18:17.442Z,66.2
2022-11-29T11:23:19.630Z,66.1
2022-11-29T11:28:21.743Z,66.2
2022-11-29T11:33:23.882Z,66.3
2022-11-29T11:38:26.044Z,66.2
2022-11-29T11:43:28.154Z,66.2
2022-11-29T11:48:30.289Z,66.1
2022-11-29T11:53:32.624Z,66.1
2022-11-29T11:58:34.750Z,66
2022-11-29T12:03:36.913Z,66
2022-11-29T12:08:39.098Z,65.8
2022-11-29T12:13:41.153Z,65.9
2022-11-29T12:18:43.299Z,65.9
2022-11-29T12:23:45.466Z,65.6
2022-11-29T12:28:47.743Z,65.6
2022-11-29T12:33:49.938Z,65.6
2022-11-29T12:38:52.280Z,65.6
2022-11-29T12:43:54.415Z,65.5
2022-11-29T12:48:56.555Z,65.3
2022-11-29T12:53:58.794Z,65.4
2022-11-29T12:59:00.893Z,65.4
2022-11-29T13:04:03.036Z,65.2
2022-11-29T13:09:05.401Z,65.3
2022-11-29T13:14:34.468Z,65.2
2022-11-29T13:19:09.848Z,65.3
2022-11-29T13:24:12.029Z,65.3
2022-11-29T13:29:14.139Z,65.2
2022-11-29T13:34:16.295Z,65.4
2022-11-29T13:39:18.456Z,65.2
2022-11-29T13:44:20.787Z,65.3
2022-11-29T13:49:23.129Z,65.1
2022-11-29T13:54:25.543Z,65.1
2022-11-29T13:59:27.648Z,65.2
2022-11-29T14:04:29.960Z,65.1
2022-11-29T14:09:32.147Z,65.1
2022-11-29T14:14:34.264Z,65.1
2022-11-29T14:19:36.400Z,65.3
2022-11-29T14:24:38.567Z,65
2022-11-29T14:29:40.864Z,65
2022-11-29T14:34:43.518Z,65.1
2022-11-29T14:39:45.582Z,65
2022-11-29T14:44:47.760Z,65.1
2022-11-29T14:49:50.060Z,64.9
2022-11-29T14:54:54.185Z,65
2022-11-29T14:59:54.366Z,65
2022-11-29T15:04:56.507Z,65.1
2022-11-29T15:09:58.681Z,64.9
2022-11-29T15:15:00.969Z,65
2022-11-29T15:20:03.236Z,65.1
2022-11-29T15:25:05.533Z,64.8
2022-11-29T15:30:07.674Z,65
2022-11-29T15:35:09.973Z,65.1
2022-11-29T15:40:12.160Z,65.6
2022-11-29T15:45:14.270Z,65.5
2022-11-29T15:50:16.424Z,65.3
2022-11-29T15:55:18.588Z,64.8
2022-11-29T16:00:20.701Z,64.6
2022-11-29T16:05:22.923Z,64.4
2022-11-29T16:10:27.217Z,64
2022-11-29T16:15:27.556Z,63.6
2022-11-29T16:20:29.908Z,63.4
2022-11-29T16:25:36.114Z,63
2022-11-29T16:30:34.216Z,62.1
2022-11-29T16:35:36.388Z,61.7
2022-11-29T16:40:38.561Z,61.2
2022-11-29T16:45:40.710Z,60.7
2022-11-29T16:50:42.814Z,60.7
2022-11-29T16:55:44.970Z,60.6
2022-11-29T17:00:47.172Z,60.7
2022-11-29T17:05:49.227Z,60.7
2022-11-29T17:10:51.381Z,60.6
2022-11-29T17:15:53.680Z,60.6
2022-11-29T17:20:55.849Z,60.6
2022-11-29T17:25:58.011Z,61.1
2022-11-29T17:31:00.132Z,61.4
2022-11-29T17:36:02.269Z,61.6
2022-11-29T17:41:04.451Z,61.6
2022-11-29T17:46:06.616Z,62.8
2022-11-29T17:51:22.757Z,61.9
2022-11-29T17:56:11.061Z,62.3
2022-11-29T18:01:13.188Z,62.4
2022-11-29T18:06:15.286Z,62.6
2022-11-29T18:11:17.738Z,62.5
2022-11-29T18:16:20.058Z,62.9
2022-11-29T18:21:22.424Z,62.8
2022-11-29T18:26:24.647Z,63
2022-11-29T18:31:28.136Z,62.9
2022-11-29T18:36:29.073Z,63.1
2022-11-29T18:41:31.235Z,63
2022-11-29T18:46:33.461Z,63.2
2022-11-29T18:51:35.496Z,63.3
2022-11-29T18:56:37.681Z,63.5
2022-11-29T19:01:40.009Z,64.4
2022-11-29T19:06:42.128Z,64.8
2022-11-29T19:11:44.510Z,64.7
